sensor_id;sensor_type;location;lat;lon;timestamp;pressure;altitude;pressure_sealevel;temperature;humidity
72975;BME280;61166;54.228;37.632;2022-11-27T00:01:25;100742.53;;;-3.44;nan
72975;BME280;61166;54.228;37.632;2022-11-27T00:03:53;100739.84;;;-3.56;nan
72975;BME280;61166;54.228;37.632;2022-11-27T00:06:23;100744.16;;;-3.57;nan
72975;BME280;61166;54.228;37.632;2022-11-27T00:08:50;100729.97;;;-3.48;nan
72975;BME280;61166;54.228;37.632;2022-11-27T00:11:20;100749.19;;;-3.55;nan
72975;BME280;61166;54.228;37.632;2022-11-27T00:13:48;100744.38;;;-3.61;nan
72975;BME280;61166;54.228;37.632;2022-11-27T00:16:16;100731.94;;;-3.53;nan
72975;BME280;61166;54.228;37.632;2022-11-27T00:18:43;100735.59;;;-3.57;nan
72975;BME280;61166;54.228;37.632;2022-11-27T00:21:13;100728.47;;;-3.52;nan
72975;BME280;61166;54.228;37.632;2022-11-27T00:23:40;100734.69;;;-3.56;nan
72975;BME280;61166;54.228;37.632;2022-11-27T00:26:07;100736.34;;;-3.55;nan
72975;BME280;61166;54.228;37.632;2022-11-27T00:28:34;100739.75;;;-3.55;nan
72975;BME280;61166;54.228;37.632;2022-11-27T00:31:03;100738.88;;;-3.40;nan
72975;BME280;61166;54.228;37.632;2022-11-27T00:33:31;100735.94;;;-3.48;nan
72975;BME280;61166;54.228;37.632;2022-11-27T00:36:02;100740.41;;;-3.51;nan
72975;BME280;61166;54.228;37.632;2022-11-27T00:38:29;100735.81;;;-3.46;nan
72975;BME280;61166;54.228;37.632;2022-11-27T00:43:36;100734.53;;;-3.53;nan
72975;BME280;61166;54.228;37.632;2022-11-27T00:46:14;100731.78;;;-3.50;nan
72975;BME280;61166;54.228;37.632;2022-11-27T00:48:41;100735.09;;;-3.48;nan
72975;BME280;61166;54.228;37.632;2022-11-27T00:51:10;100735.09;;;-3.48;nan
72975;BME280;61166;54.228;37.632;2022-11-27T00:53:38;100734.00;;;-3.44;nan
72975;BME280;61166;54.228;37.632;2022-11-27T00:56:05;100745.78;;;-3.40;nan
72975;BME280;61166;54.228;37.632;2022-11-27T00:58:32;100743.78;;;-3.35;nan
72975;BME280;61166;54.228;37.632;2022-11-27T01:01:00;100743.94;;;-3.38;nan
72975;BME280;61166;54.228;37.632;2022-11-27T01:03:28;100745.38;;;-3.48;nan
72975;BME280;61166;54.228;37.632;2022-11-27T01:05:55;100755.84;;;-3.51;nan
72975;BME280;61166;54.228;37.632;2022-11-27T01:08:22;100740.25;;;-3.48;nan
72975;BME280;61166;54.228;37.632;2022-11-27T01:10:54;100745.19;;;-3.45;nan
72975;BME280;61166;54.228;37.632;2022-11-27T01:13:27;100758.34;;;-3.50;nan
72975;BME280;61166;54.228;37.632;2022-11-27T01:16:08;100744.47;;;-3.47;nan
72975;BME280;61166;54.228;37.632;2022-11-27T01:18:36;100739.34;;;-3.47;nan
72975;BME280;61166;54.228;37.632;2022-11-27T01:21:04;100749.28;;;-3.57;nan
72975;BME280;61166;54.228;37.632;2022-11-27T01:23:31;100753.09;;;-3.48;nan
72975;BME280;61166;54.228;37.632;2022-11-27T01:26:02;100785.22;;;-3.55;nan
72975;BME280;61166;54.228;37.632;2022-11-27T01:28:29;100742.56;;;-3.59;nan
72975;BME280;61166;54.228;37.632;2022-11-27T01:30:56;100747.22;;;-3.50;nan
72975;BME280;61166;54.228;37.632;2022-11-27T01:33:23;100758.88;;;-3.29;nan
72975;BME280;61166;54.228;37.632;2022-11-27T01:35:55;100753.16;;;-3.34;nan
72975;BME280;61166;54.228;37.632;2022-11-27T01:38:22;100746.84;;;-3.44;nan
72975;BME280;61166;54.228;37.632;2022-11-27T01:40:58;100756.47;;;-3.32;nan
72975;BME280;61166;54.228;37.632;2022-11-27T01:49:27;100758.34;;;-3.50;nan
72975;BME280;61166;54.228;37.632;2022-11-27T01:52:26;100755.19;;;-3.55;nan
72975;BME280;61166;54.228;37.632;2022-11-27T01:55:00;100756.91;;;-3.55;nan
72975;BME280;61166;54.228;37.632;2022-11-27T01:57:31;100753.19;;;-3.50;nan
72975;BME280;61166;54.228;37.632;2022-11-27T02:00:00;100761.72;;;-3.49;nan
72975;BME280;61166;54.228;37.632;2022-11-27T02:02:27;100762.66;;;-3.50;nan
72975;BME280;61166;54.228;37.632;2022-11-27T02:04:54;100770.34;;;-3.50;nan
72975;BME280;61166;54.228;37.632;2022-11-27T02:07:21;100758.41;;;-3.51;nan
72975;BME280;61166;54.228;37.632;2022-11-27T02:09:48;100755.19;;;-3.55;nan
72975;BME280;61166;54.228;37.632;2022-11-27T02:12:25;100761.81;;;-3.51;nan
72975;BME280;61166;54.228;37.632;2022-11-27T02:14:59;100750.66;;;-3.36;nan
72975;BME280;61166;54.228;37.632;2022-11-27T02:34:00;100744.47;;;-3.47;nan
72975;BME280;61166;54.228;37.632;2022-11-27T02:36:32;100759.41;;;-3.54;nan
72975;BME280;61166;54.228;37.632;2022-11-27T02:39:17;100752.59;;;-3.55;nan
72975;BME280;61166;54.228;37.632;2022-11-27T02:41:49;100751.00;;;-3.42;nan
72975;BME280;61166;54.228;37.632;2022-11-27T02:44:20;100758.97;;;-3.46;nan
72975;BME280;61166;54.228;37.632;2022-11-27T02:46:48;100758.75;;;-3.57;nan
72975;BME280;61166;54.228;37.632;2022-11-27T02:49:17;100755.94;;;-3.53;nan
72975;BME280;61166;54.228;37.632;2022-11-27T02:51:52;100754.09;;;-3.51;nan
72975;BME280;61166;54.228;37.632;2022-11-27T02:54:23;100758.63;;;-3.40;nan
72975;BME280;61166;54.228;37.632;2022-11-27T02:56:53;100758.41;;;-3.51;nan
72975;BME280;61166;54.228;37.632;2022-11-27T02:59:23;100770.28;;;-3.49;nan
72975;BME280;61166;54.228;37.632;2022-11-27T03:01:55;100765.97;;;-3.48;nan
72975;BME280;61166;54.228;37.632;2022-11-27T03:04:27;100766.88;;;-3.49;nan
72975;BME280;61166;54.228;37.632;2022-11-27T03:06:58;100779.03;;;-3.37;nan
72975;BME280;61166;54.228;37.632;2022-11-27T03:09:32;100774.59;;;-3.49;nan
72975;BME280;61166;54.228;37.632;2022-11-27T03:12:02;100784.75;;;-3.32;nan
72975;BME280;61166;54.228;37.632;2022-11-27T03:14:29;100787.25;;;-3.46;nan
72975;BME280;61166;54.228;37.632;2022-11-27T03:17:10;100789.03;;;-3.47;nan
72975;BME280;61166;54.228;37.632;2022-11-27T03:19:48;100783.22;;;-3.50;nan
72975;BME280;61166;54.228;37.632;2022-11-27T03:22:17;100788.38;;;-3.50;nan
72975;BME280;61166;54.228;37.632;2022-11-27T03:24:44;100786.69;;;-3.51;nan
72975;BME280;61166;54.228;37.632;2022-11-27T03:27:13;100783.34;;;-3.38;nan
72975;BME280;61166;54.228;37.632;2022-11-27T03:29:47;100796.47;;;-3.42;nan
72975;BME280;61166;54.228;37.632;2022-11-27T03:32:15;100792.22;;;-3.43;nan
72975;BME280;61166;54.228;37.632;2022-11-27T03:34:43;100783.34;;;-3.38;nan
72975;BME280;61166;54.228;37.632;2022-11-27T03:37:10;100795.13;;;-3.34;nan
72975;BME280;61166;54.228;37.632;2022-11-27T03:39:36;100782.78;;;-3.27;nan
72975;BME280;61166;54.228;37.632;2022-11-27T03:50:28;100793.34;;;-3.47;nan
72975;BME280;61166;54.228;37.632;2022-11-27T03:56:16;100792.72;;;-3.37;nan
72975;BME280;61166;54.228;37.632;2022-11-27T03:58:52;100802.78;;;-3.32;nan
72975;BME280;61166;54.228;37.632;2022-11-27T04:01:22;100805.19;;;-3.29;nan
72975;BME280;61166;54.228;37.632;2022-11-27T04:03:50;100806.44;;;-3.36;nan
72975;BME280;61166;54.228;37.632;2022-11-27T04:06:17;100802.59;;;-3.29;nan
72975;BME280;61166;54.228;37.632;2022-11-27T04:08:45;100802.59;;;-3.29;nan
72975;BME280;61166;54.228;37.632;2022-11-27T04:11:13;100815.56;;;-3.30;nan
72975;BME280;61166;54.228;37.632;2022-11-27T04:13:40;100801.63;;;-3.26;nan
72975;BME280;61166;54.228;37.632;2022-11-27T04:16:07;100808.59;;;-3.28;nan
72975;BME280;61166;54.228;37.632;2022-11-27T04:18:34;100800.63;;;-3.24;nan
72975;BME280;61166;54.228;37.632;2022-11-27T04:21:00;100799.44;;;-3.34;nan
72975;BME280;61166;54.228;37.632;2022-11-27T04:23:27;100800.13;;;-3.30;nan
72975;BME280;61166;54.228;37.632;2022-11-27T04:25:54;100799.13;;;-3.28;nan
72975;BME280;61166;54.228;37.632;2022-11-27T04:28:20;100797.78;;;-3.35;nan
72975;BME280;61166;54.228;37.632;2022-11-27T04:30:51;100796.13;;;-3.36;nan
72975;BME280;61166;54.228;37.632;2022-11-27T04:33:18;100797.13;;;-3.39;nan
72975;BME280;61166;54.228;37.632;2022-11-27T04:35:45;100801.63;;;-3.26;nan
72975;BME280;61166;54.228;37.632;2022-11-27T04:38:11;100804.28;;;-3.28;nan
72975;BME280;61166;54.228;37.632;2022-11-27T04:40:38;100796.63;;;-3.29;nan
72975;BME280;61166;54.228;37.632;2022-11-27T04:43:05;100803.78;;;-3.19;nan
72975;BME280;61166;54.228;37.632;2022-11-27T04:45:32;100805.94;;;-3.27;nan
72975;BME280;61166;54.228;37.632;2022-11-27T04:47:58;100813.22;;;-3.19;nan
72975;BME280;61166;54.228;37.632;2022-11-27T04:50:25;100806.84;;;-3.28;nan
72975;BME280;61166;54.228;37.632;2022-11-27T04:52:51;100815.72;;;-3.18;nan
72975;BME280;61166;54.228;37.632;2022-11-27T04:55:18;100815.88;;;-3.21;nan
72975;BME280;61166;54.228;37.632;2022-11-27T04:57:44;100813.72;;;-3.28;nan
72975;BME280;61166;54.228;37.632;2022-11-27T05:00:11;100815.13;;;-3.23;nan
72975;BME280;61166;54.228;37.632;2022-11-27T05:02:38;100824.19;;;-3.16;nan
72975;BME280;61166;54.228;37.632;2022-11-27T05:05:05;100824.34;;;-3.19;nan
72975;BME280;61166;54.228;37.632;2022-11-27T05:07:32;100819.53;;;-3.25;nan
72975;BME280;61166;54.228;37.632;2022-11-27T05:09:59;100823.34;;;-3.32;nan
72975;BME280;61166;54.228;37.632;2022-11-27T05:12:25;100830.16;;;-3.31;nan
72975;BME280;61166;54.228;37.632;2022-11-27T05:14:52;100822.13;;;-3.25;nan
72975;BME280;61166;54.228;37.632;2022-11-27T05:17:18;100815.47;;;-3.29;nan
72975;BME280;61166;54.228;37.632;2022-11-27T05:19:45;100826.59;;;-3.28;nan
72975;BME280;61166;54.228;37.632;2022-11-27T05:22:11;100824.03;;;-3.13;nan
72975;BME280;61166;54.228;37.632;2022-11-27T05:24:38;100815.72;;;-3.18;nan
72975;BME280;61166;54.228;37.632;2022-11-27T05:27:05;100813.97;;;-3.33;nan
72975;BME280;61166;54.228;37.632;2022-11-27T05:29:31;100822.94;;;-3.24;nan
72975;BME280;61166;54.228;37.632;2022-11-27T05:31:58;100824.84;;;-3.28;nan
72975;BME280;61166;54.228;37.632;2022-11-27T05:34:24;100814.22;;;-3.22;nan
72975;BME280;61166;54.228;37.632;2022-11-27T05:36:51;100826.00;;;-3.18;nan
72975;BME280;61166;54.228;37.632;2022-11-27T05:39:17;100817.38;;;-3.17;nan
72975;BME280;61166;54.228;37.632;2022-11-27T05:41:44;100804.19;;;-3.26;nan
72975;BME280;61166;54.228;37.632;2022-11-27T05:44:13;100806.50;;;-3.22;nan
72975;BME280;61166;54.228;37.632;2022-11-27T05:46:40;100807.00;;;-3.15;nan
72975;BME280;61166;54.228;37.632;2022-11-27T05:49:10;100804.00;;;-3.08;nan
72975;BME280;61166;54.228;37.632;2022-11-27T05:51:37;100805.69;;;-3.07;nan
72975;BME280;61166;54.228;37.632;2022-11-27T05:54:03;100807.44;;;-3.23;nan
72975;BME280;61166;54.228;37.632;2022-11-27T05:56:30;100813.06;;;-3.16;nan
72975;BME280;61166;54.228;37.632;2022-11-27T05:58:57;100812.25;;;-3.17;nan
72975;BME280;61166;54.228;37.632;2022-11-27T06:01:24;100813.16;;;-3.18;nan
72975;BME280;61166;54.228;37.632;2022-11-27T06:03:50;100816.88;;;-3.23;nan
72975;BME280;61166;54.228;37.632;2022-11-27T06:06:18;100812.06;;;-3.14;nan
72975;BME280;61166;54.228;37.632;2022-11-27T06:08:46;100814.81;;;-3.17;nan
72975;BME280;61166;54.228;37.632;2022-11-27T06:11:14;100805.69;;;-3.07;nan
72975;BME280;61166;54.228;37.632;2022-11-27T06:13:41;100802.19;;;-3.06;nan
72975;BME280;61166;54.228;37.632;2022-11-27T06:16:13;100811.31;;;-3.00;nan
72975;BME280;61166;54.228;37.632;2022-11-27T06:18:41;100811.00;;;-3.10;nan
72975;BME280;61166;54.228;37.632;2022-11-27T06:21:09;100811.91;;;-3.11;nan
72975;BME280;61166;54.228;37.632;2022-11-27T06:23:37;100823.44;;;-3.18;nan
72975;BME280;61166;54.228;37.632;2022-11-27T06:28:41;100823.19;;;-3.13;nan
72975;BME280;61166;54.228;37.632;2022-11-27T06:31:10;100816.53;;;-3.02;nan
72975;BME280;61166;54.228;37.632;2022-11-27T06:33:44;100810.91;;;-3.08;nan
72975;BME280;61166;54.228;37.632;2022-11-27T06:36:10;100822.03;;;-3.08;nan
72975;BME280;61166;54.228;37.632;2022-11-27T06:38:37;100823.09;;;-3.12;nan
72975;BME280;61166;54.228;37.632;2022-11-27T06:41:10;100820.13;;;-3.04;nan
72975;BME280;61166;54.228;37.632;2022-11-27T06:43:37;100809.47;;;-2.98;nan
72975;BME280;61166;54.228;37.632;2022-11-27T06:46:05;100834.91;;;-3.08;nan
72975;BME280;61166;54.228;37.632;2022-11-27T06:48:33;100811.56;;;-3.05;nan
72975;BME280;61166;54.228;37.632;2022-11-27T06:51:04;100808.25;;;-3.07;nan
72975;BME280;61166;54.228;37.632;2022-11-27T06:53:33;100807.09;;;-3.01;nan
72975;BME280;61166;54.228;37.632;2022-11-27T06:56:05;100814.81;;;-2.71;nan
72975;BME280;61166;54.228;37.632;2022-11-27T06:58:32;100822.59;;;-3.03;nan
72975;BME280;61166;54.228;37.632;2022-11-27T07:01:00;100813.22;;;-3.04;nan
72975;BME280;61166;54.228;37.632;2022-11-27T07:03:27;100817.16;;;-2.82;nan
72975;BME280;61166;54.228;37.632;2022-11-27T07:05:54;100839.25;;;-2.78;nan
72975;BME280;61166;54.228;37.632;2022-11-27T07:08:20;100842.13;;;-2.98;nan
72975;BME280;61166;54.228;37.632;2022-11-27T07:10:47;100826.69;;;-2.98;nan
72975;BME280;61166;54.228;37.632;2022-11-27T07:13:14;100832.31;;;-2.92;nan
72975;BME280;61166;54.228;37.632;2022-11-27T07:15:41;100833.22;;;-2.93;nan
72975;BME280;61166;54.228;37.632;2022-11-27T07:18:09;100831.41;;;-2.91;nan
72975;BME280;61166;54.228;37.632;2022-11-27T07:20:36;100839.94;;;-2.90;nan
72975;BME280;61166;54.228;37.632;2022-11-27T07:23:03;100840.78;;;-2.90;nan
72975;BME280;61166;54.228;37.632;2022-11-27T07:25:29;100836.09;;;-2.83;nan
72975;BME280;61166;54.228;37.632;2022-11-27T07:27:56;100848.19;;;-3.00;nan
72975;BME280;61166;54.228;37.632;2022-11-27T07:30:22;100827.59;;;-3.00;nan
72975;BME280;61166;54.228;37.632;2022-11-27T07:32:49;100845.44;;;-2.96;nan
72975;BME280;61166;54.228;37.632;2022-11-27T07:35:17;100844.19;;;-2.89;nan
72975;BME280;61166;54.228;37.632;2022-11-27T07:37:43;100824.13;;;-2.84;nan
72975;BME280;61166;54.228;37.632;2022-11-27T07:40:10;100836.41;;;-2.74;nan
72975;BME280;61166;54.228;37.632;2022-11-27T07:42:40;100833.78;;;-2.88;nan
72975;BME280;61166;54.228;37.632;2022-11-27T07:45:07;100849.53;;;-2.78;nan
72975;BME280;61166;54.228;37.632;2022-11-27T07:47:34;100850.06;;;-2.87;nan
72975;BME280;61166;54.228;37.632;2022-11-27T07:50:00;100843.56;;;-2.79;nan
72975;BME280;61166;54.228;37.632;2022-11-27T07:52:27;100839.66;;;-2.70;nan
72975;BME280;61166;54.228;37.632;2022-11-27T07:54:53;100846.69;;;-2.58;nan
72975;BME280;61166;54.228;37.632;2022-11-27T07:57:20;100856.66;;;-2.52;nan
72975;BME280;61166;54.228;37.632;2022-11-27T07:59:47;100850.56;;;-2.51;nan
72975;BME280;61166;54.228;37.632;2022-11-27T08:02:13;100865.28;;;-2.53;nan
72975;BME280;61166;54.228;37.632;2022-11-27T08:04:40;100841.53;;;-2.58;nan
72975;BME280;61166;54.228;37.632;2022-11-27T08:07:07;100853.31;;;-2.54;nan
72975;BME280;61166;54.228;37.632;2022-11-27T08:09:34;100854.13;;;-2.38;nan
72975;BME280;61166;54.228;37.632;2022-11-27T08:12:01;100857.97;;;-2.45;nan
72975;BME280;61166;54.228;37.632;2022-11-27T08:14:27;100852.97;;;-2.48;nan
72975;BME280;61166;54.228;37.632;2022-11-27T08:16:54;100857.59;;;-2.39;nan
72975;BME280;61166;54.228;37.632;2022-11-27T08:19:21;100855.69;;;-2.35;nan
72975;BME280;61166;54.228;37.632;2022-11-27T08:21:47;100863.09;;;-2.45;nan
72975;BME280;61166;54.228;37.632;2022-11-27T08:24:14;100861.06;;;-2.54;nan
72975;BME280;61166;54.228;37.632;2022-11-27T08:26:41;100856.13;;;-2.43;nan
72975;BME280;61166;54.228;37.632;2022-11-27T08:29:10;100852.97;;;-2.48;nan
72975;BME280;61166;54.228;37.632;2022-11-27T08:31:38;100848.47;;;-2.44;nan
72975;BME280;61166;54.228;37.632;2022-11-27T08:34:04;100859.78;;;-2.47;nan
72975;BME280;61166;54.228;37.632;2022-11-27T08:36:31;100855.94;;;-2.40;nan
72975;BME280;61166;54.228;37.632;2022-11-27T08:38:58;100853.97;;;-2.50;nan
72975;BME280;61166;54.228;37.632;2022-11-27T08:41:24;100872.41;;;-2.42;nan
72975;BME280;61166;54.228;37.632;2022-11-27T08:43:51;100858.13;;;-2.48;nan
72975;BME280;61166;54.228;37.632;2022-11-27T08:46:17;100857.97;;;-2.30;nan
72975;BME280;61166;54.228;37.632;2022-11-27T08:48:44;100856.50;;;-2.35;nan
72975;BME280;61166;54.228;37.632;2022-11-27T08:51:13;100860.94;;;-2.37;nan
72975;BME280;61166;54.228;37.632;2022-11-27T08:53:42;100857.72;;;-2.26;nan
72975;BME280;61166;54.228;37.632;2022-11-27T08:56:20;100854.38;;;-2.28;nan
72975;BME280;61166;54.228;37.632;2022-11-27T08:58:47;100858.53;;;-2.25;nan
72975;BME280;61166;54.228;37.632;2022-11-27T09:01:20;100859.28;;;-2.38;nan
72975;BME280;61166;54.228;37.632;2022-11-27T09:03:48;100857.97;;;-2.30;nan
72975;BME280;61166;54.228;37.632;2022-11-27T09:06:21;100874.47;;;-2.33;nan
72975;BME280;61166;54.228;37.632;2022-11-27T09:08:48;100852.28;;;-2.36;nan
72975;BME280;61166;54.228;37.632;2022-11-27T09:11:17;100896.19;;;-2.53;nan
72975;BME280;61166;54.228;37.632;2022-11-27T09:13:45;100886.38;;;-2.46;nan
72975;BME280;61166;54.228;37.632;2022-11-27T09:16:13;100847.88;;;-2.34;nan
72975;BME280;61166;54.228;37.632;2022-11-27T09:18:43;100859.00;;;-2.33;nan
72975;BME280;61166;54.228;37.632;2022-11-27T09:21:11;100856.47;;;-2.49;nan
72975;BME280;61166;54.228;37.632;2022-11-27T09:23:39;100863.69;;;-2.40;nan
72975;BME280;61166;54.228;37.632;2022-11-27T09:26:11;100856.94;;;-2.42;nan
72975;BME280;61166;54.228;37.632;2022-11-27T09:28:39;100845.00;;;-2.43;nan
72975;BME280;61166;54.228;37.632;2022-11-27T09:31:08;100847.03;;;-2.34;nan
72975;BME280;61166;54.228;37.632;2022-11-27T09:33:36;100851.38;;;-2.35;nan
72975;BME280;61166;54.228;37.632;2022-11-27T09:36:23;100861.84;;;-2.38;nan
72975;BME280;61166;54.228;37.632;2022-11-27T09:38:51;100853.47;;;-2.41;nan
72975;BME280;61166;54.228;37.632;2022-11-27T09:46:59;100852.63;;;-2.42;nan
72975;BME280;61166;54.228;37.632;2022-11-27T09:49:47;100839.53;;;-2.53;nan
72975;BME280;61166;54.228;37.632;2022-11-27T09:52:37;100842.59;;;-2.46;nan
72975;BME280;61166;54.228;37.632;2022-11-27T09:57:39;100849.81;;;-2.23;nan
72975;BME280;61166;54.228;37.632;2022-11-27T10:00:26;100850.63;;;-2.37;nan
72975;BME280;61166;54.228;37.632;2022-11-27T10:02:53;100851.53;;;-2.38;nan
72975;BME280;61166;54.228;37.632;2022-11-27T10:05:32;100841.81;;;-2.33;nan
72975;BME280;61166;54.228;37.632;2022-11-27T10:18:57;100828.34;;;-2.38;nan
72975;BME280;61166;54.228;37.632;2022-11-27T10:21:46;100829.88;;;-2.49;nan
72975;BME280;61166;54.228;37.632;2022-11-27T10:27:29;100839.41;;;-2.36;nan
72975;BME280;61166;54.228;37.632;2022-11-27T10:29:59;100840.09;;;-2.48;nan
72975;BME280;61166;54.228;37.632;2022-11-27T10:32:29;100837.34;;;-2.45;nan
72975;BME280;61166;54.228;37.632;2022-11-27T10:35:19;100831.44;;;-2.47;nan
72975;BME280;61166;54.228;37.632;2022-11-27T10:40:42;100838.97;;;-2.58;nan
72975;BME280;61166;54.228;37.632;2022-11-27T10:43:18;100836.69;;;-2.48;nan
72975;BME280;61166;54.228;37.632;2022-11-27T10:46:04;100841.00;;;-2.49;nan
72975;BME280;61166;54.228;37.632;2022-11-27T10:48:35;100836.13;;;-2.53;nan
72975;BME280;61166;54.228;37.632;2022-11-27T10:51:01;100848.75;;;-2.49;nan
72975;BME280;61166;54.228;37.632;2022-11-27T10:53:30;100845.25;;;-2.48;nan
72975;BME280;61166;54.228;37.632;2022-11-27T10:58:40;100834.50;;;-2.40;nan
72975;BME280;61166;54.228;37.632;2022-11-27T11:01:11;100840.84;;;-2.46;nan
72975;BME280;61166;54.228;37.632;2022-11-27T11:03:38;100847.31;;;-2.39;nan
72975;BME280;61166;54.228;37.632;2022-11-27T11:06:12;100846.59;;;-2.56;nan
72975;BME280;61166;54.228;37.632;2022-11-27T11:09:15;100843.69;;;-2.50;nan
72975;BME280;61166;54.228;37.632;2022-11-27T11:11:42;100851.09;;;-2.60;nan
72975;BME280;61166;54.228;37.632;2022-11-27T11:14:25;100841.38;;;-2.55;nan
72975;BME280;61166;54.228;37.632;2022-11-27T11:16:53;100846.44;;;-2.53;nan
72975;BME280;61166;54.228;37.632;2022-11-27T11:19:31;100846.13;;;-2.63;nan
72975;BME280;61166;54.228;37.632;2022-11-27T11:22:02;100840.09;;;-2.48;nan
72975;BME280;61166;54.228;37.632;2022-11-27T11:24:31;100849.22;;;-2.42;nan
72975;BME280;61166;54.228;37.632;2022-11-27T11:27:06;100865.38;;;-2.54;nan
72975;BME280;61166;54.228;37.632;2022-11-27T11:29:52;100834.19;;;-2.50;nan
72975;BME280;61166;54.228;37.632;2022-11-27T11:34:57;100834.19;;;-2.50;nan
72975;BME280;61166;54.228;37.632;2022-11-27T11:37:29;100829.34;;;-2.40;nan
72975;BME280;61166;54.228;37.632;2022-11-27T11:40:03;100844.16;;;-2.44;nan
72975;BME280;61166;54.228;37.632;2022-11-27T11:42:32;100836.88;;;-2.51;nan
72975;BME280;61166;54.228;37.632;2022-11-27T11:45:14;100852.97;;;-2.48;nan
72975;BME280;61166;54.228;37.632;2022-11-27T11:47:53;100846.78;;;-2.59;nan
72975;BME280;61166;54.228;37.632;2022-11-27T12:09:39;100839.31;;;-2.34;nan
72975;BME280;61166;54.228;37.632;2022-11-27T12:14:55;100847.81;;;-2.48;nan
72975;BME280;61166;54.228;37.632;2022-11-27T12:17:34;100835.22;;;-2.52;nan
72975;BME280;61166;54.228;37.632;2022-11-27T12:20:14;100834.25;;;-2.36;nan
72975;BME280;61166;54.228;37.632;2022-11-27T12:26:42;100861.41;;;-2.60;nan
72975;BME280;61166;54.228;37.632;2022-11-27T12:34:57;100841.38;;;-2.55;nan
72975;BME280;61166;54.228;37.632;2022-11-27T12:40:08;100851.41;;;-2.50;nan
72975;BME280;61166;54.228;37.632;2022-11-27T12:43:22;100862.78;;;-2.54;nan
72975;BME280;61166;54.228;37.632;2022-11-27T12:45:30;100871.13;;;-2.65;nan
72975;BME280;61166;54.228;37.632;2022-11-27T12:48:18;100853.84;;;-2.63;nan
72975;BME280;61166;54.228;37.632;2022-11-27T12:53:49;100862.06;;;-2.56;nan
72975;BME280;61166;54.228;37.632;2022-11-27T12:58:52;100866.78;;;-2.49;nan
72975;BME280;61166;54.228;37.632;2022-11-27T13:01:27;100859.66;;;-2.59;nan
72975;BME280;61166;54.228;37.632;2022-11-27T13:12:02;100854.41;;;-2.58;nan
72975;BME280;61166;54.228;37.632;2022-11-27T13:14:29;100859.38;;;-2.55;nan
72975;BME280;61166;54.228;37.632;2022-11-27T13:17:03;100867.91;;;-2.39;nan
72975;BME280;61166;54.228;37.632;2022-11-27T13:19:33;100866.03;;;-2.51;nan
72975;BME280;61166;54.228;37.632;2022-11-27T13:22:08;100864.53;;;-2.55;nan
72975;BME280;61166;54.228;37.632;2022-11-27T13:24:37;100856.94;;;-2.42;nan
72975;BME280;61166;54.228;37.632;2022-11-27T13:27:18;100871.94;;;-2.49;nan
72975;BME280;61166;54.228;37.632;2022-11-27T13:30:20;100869.91;;;-2.44;nan
72975;BME280;61166;54.228;37.632;2022-11-27T13:32:56;100869.91;;;-2.44;nan
72975;BME280;61166;54.228;37.632;2022-11-27T13:35:30;100873.81;;;-2.37;nan
72975;BME280;61166;54.228;37.632;2022-11-27T13:38:13;100871.16;;;-2.35;nan
72975;BME280;61166;54.228;37.632;2022-11-27T13:40:47;100867.75;;;-2.36;nan
72975;BME280;61166;54.228;37.632;2022-11-27T13:43:27;100869.75;;;-2.41;nan
72975;BME280;61166;54.228;37.632;2022-11-27T13:46:06;100870.84;;;-2.45;nan
72975;BME280;61166;54.228;37.632;2022-11-27T13:48:40;100874.38;;;-2.31;nan
72975;BME280;61166;54.228;37.632;2022-11-27T13:51:09;100875.88;;;-2.13;nan
72975;BME280;61166;54.228;37.632;2022-11-27T13:53:38;100874.38;;;-2.31;nan
72975;BME280;61166;54.228;37.632;2022-11-27T13:56:06;100874.38;;;-2.31;nan
72975;BME280;61166;54.228;37.632;2022-11-27T13:58:36;100875.28;;;-2.33;nan
72975;BME280;61166;54.228;37.632;2022-11-27T14:01:18;100876.66;;;-2.27;nan
72975;BME280;61166;54.228;37.632;2022-11-27T14:03:47;100869.03;;;-2.28;nan
72975;BME280;61166;54.228;37.632;2022-11-27T14:06:24;100870.84;;;-2.30;nan
72975;BME280;61166;54.228;37.632;2022-11-27T14:08:59;100872.44;;;-2.28;nan
72975;BME280;61166;54.228;37.632;2022-11-27T14:11:39;100876.97;;;-2.17;nan
72975;BME280;61166;54.228;37.632;2022-11-27T14:14:20;100867.47;;;-2.17;nan
72975;BME280;61166;54.228;37.632;2022-11-27T14:16:59;100869.97;;;-2.15;nan
72975;BME280;61166;54.228;37.632;2022-11-27T14:19:56;100866.13;;;-2.08;nan
72975;BME280;61166;54.228;37.632;2022-11-27T14:25:31;100873.25;;;-2.27;nan
72975;BME280;61166;54.228;37.632;2022-11-27T14:28:11;100915.00;;;-2.07;nan
72975;BME280;61166;54.228;37.632;2022-11-27T14:30:44;100879.97;;;-2.25;nan
72975;BME280;61166;54.228;37.632;2022-11-27T14:35:52;100879.81;;;-2.22;nan
72975;BME280;61166;54.228;37.632;2022-11-27T14:38:23;100885.25;;;-2.12;nan
72975;BME280;61166;54.228;37.632;2022-11-27T14:40:51;100879.28;;;-2.13;nan
72975;BME280;61166;54.228;37.632;2022-11-27T14:43:23;100883.44;;;-2.10;nan
72975;BME280;61166;54.228;37.632;2022-11-27T14:45:52;100875.97;;;-2.15;nan
72975;BME280;61166;54.228;37.632;2022-11-27T14:48:25;100867.25;;;-1.98;nan
72975;BME280;61166;54.228;37.632;2022-11-27T14:50:53;100866.31;;;-2.11;nan
72975;BME280;61166;54.228;37.632;2022-11-27T14:53:23;100876.66;;;-1.97;nan
72975;BME280;61166;54.228;37.632;2022-11-27T14:55:54;100870.38;;;-2.07;nan
72975;BME280;61166;54.228;37.632;2022-11-27T14:58:25;100874.97;;;-2.12;nan
72975;BME280;61166;54.228;37.632;2022-11-27T15:01:03;100881.56;;;-2.22;nan
72975;BME280;61166;54.228;37.632;2022-11-27T15:03:31;100869.41;;;-2.20;nan
72975;BME280;61166;54.228;37.632;2022-11-27T15:06:00;100869.97;;;-2.15;nan
72975;BME280;61166;54.228;37.632;2022-11-27T15:08:32;100873.50;;;-2.02;nan
72975;BME280;61166;54.228;37.632;2022-11-27T15:11:03;100874.47;;;-2.19;nan
72975;BME280;61166;54.228;37.632;2022-11-27T15:13:32;100891.91;;;-2.08;nan
72975;BME280;61166;54.228;37.632;2022-11-27T15:16:04;100866.66;;;-2.17;nan
72975;BME280;61166;54.228;37.632;2022-11-27T15:18:36;100881.03;;;-2.13;nan
72975;BME280;61166;54.228;37.632;2022-11-27T15:21:09;100885.09;;;-2.09;nan